Weather observations for the past three days for
Menomonie Municipal Airport-Score Field
Imperial (Metric)
Date Time (cdt) Wind (mph) Vis. (mi.) Weather Sky Cond. Temperature (ºF) Relative Humidity Wind Chill (°F) Heat Index (°F) Pressure Precipitation (in)
Air Dwpt 6 hour altimeter (in) sea level (mb) 1 hr 3 hr 6 hr
Max. Min.
07 07:15 Calm 10.00 Overcast OVC065 34.3 30.6 86% 29.93 0.0
07 06:55 Calm 10.00 Overcast OVC065 32.5 28 39.2 30.7 84% 29.93 0.0
07 06:35 Calm 10.00 Mostly Cloudy BKN065 32 27.5 83% 29.92 0.0
07 06:15 Calm 10.00 Fair CLR 31.8 27.3 83% 29.92 0.0
07 05:55 Calm 10.00 Fair CLR 32 28 85% 29.92 0.0
07 05:35 Calm 10.00 Fair CLR 32.5 27.5 82% 29.92 0.0
07 05:15 W 3 10.00 Fair CLR 33.6 28.6 82% 29.92 0.0
07 04:55 SW 6 10.00 Fair CLR 33.4 27.3 78% 29 29.92 0.0
07 04:35 W 5 10.00 Fair CLR 33.8 27.3 77% 30 29.92 0.0
07 04:15 SW 6 10.00 Fair CLR 33.3 27.3 79% 29 29.92 0.0
07 03:55 SW 6 10.00 Fair CLR 32.5 27.1 81% 28 29.92 0.0
07 03:35 W 5 10.00 Fair CLR 35.1 27.9 75% 32 29.92 0.0
07 03:15 SW 5 10.00 Fair CLR 34.2 27.7 77% 31 29.92 0.0
07 02:55 W 3 10.00 Fair CLR 35.6 27.9 73% 29.92 0.0
07 02:35 SW 3 10.00 Fair CLR 36.5 28 71% 29.93 0.0
07 02:15 SW 3 10.00 Partly Cloudy SCT070 36.3 28 72% 29.93 0.0
07 01:55 W 3 10.00 Partly Cloudy SCT070 37 27.9 69% 29.94 0.0
07 01:35 SW 3 10.00 Mostly Cloudy BKN070 36.9 28.2 71% 29.94 0.0
07 01:15 Calm 10.00 Overcast OVC070 39.2 28 64% 29.95 0.0
07 00:55 Calm 10.00 Overcast OVC070 36.9 28.6 44.6 36 72% 29.95 0.0
07 00:35 S 3 10.00 Overcast SCT060 OVC070 36.3 29.3 76% 29.95 0.0
07 00:15 Calm 10.00 Overcast SCT060 OVC070 37.8 29.7 73% 29.96 0.0
06 23:55 S 3 10.00 Overcast BKN060 OVC070 39.4 29.7 68% 29.96 0.0
06 23:35 Calm 10.00 Overcast OVC060 40.6 29.5 65% 29.96 0.0
06 23:15 Calm 10.00 Overcast OVC060 41 28.8 62% 29.97 0.0
06 22:55 Calm 10.00 Overcast OVC060 40.8 29.1 63% 29.97 0.0
06 22:35 Calm 10.00 Overcast OVC050 41 30 65% 29.98 0.0
06 22:15 Calm 10.00 Overcast OVC050 41 30.7 67% 29.98 0.0
06 21:55 Calm 10.00 Overcast OVC050 43 26.1 51% 29.98 0.0
06 21:35 Calm 10.00 Overcast OVC050 43.3 26.1 51% 29.98 0.0
06 21:15 NW 3 10.00 Overcast OVC050 43.2 26.6 52% 29.99 0.0
06 20:55 Calm 10.00 Overcast OVC050 43.2 27 53% 29.98 0.0
06 20:35 NW 3 10.00 Overcast OVC050 43.2 27 53% 29.98 0.0
06 20:15 NW 3 10.00 Overcast OVC050 43.7 26.2 50% 29.98 0.0
06 19:55 NW 5 10.00 Overcast OVC050 43.9 25.9 49% 42 29.98 0.0
06 19:35 W 9 10.00 Overcast OVC050 44.2 25.5 48% 40 29.98 0.0
06 19:15 W 8 10.00 Overcast OVC050 44.6 25.3 47% 41 29.98 0.0
06 18:55 W 10 10.00 Overcast OVC050 44.6 25.3 45.1 43.7 47% 40 29.98 0.0
06 18:35 NW 12 10.00 Overcast OVC050 45 25.5 47% 40 29.98 0.0
06 18:15 W 9 10.00 Overcast OVC050 44.8 25 46% 40 29.98 0.0
06 17:55 W 12 G 16 10.00 Overcast OVC050 45 25.2 46% 40 29.99 0.0
06 17:35 W 12 10.00 Overcast OVC050 45 25.2 46% 40 29.99 0.0
06 17:15 W 12 10.00 Overcast OVC050 44.8 25.3 47% 40 29.99 0.0
06 16:55 NW 9 10.00 Overcast OVC048 44.8 25.9 48% 40 29.99 0.0
06 16:35 W 8 10.00 Overcast OVC046 44.8 27 50% 41 29.99 0.0
06 16:15 W 10 10.00 Overcast OVC048 44.6 25.9 48% 40 29.99 0.0
06 15:55 W 6 10.00 Overcast OVC048 44.8 27.1 50% 42 30 0.0
06 15:35 W 12 G 17 10.00 Overcast OVC046 44.2 26.4 50% 39 30 0.0
06 15:15 NW 12 10.00 Overcast OVC046 44.2 26.2 49% 39 30 0.0
06 14:55 W 10 10.00 Overcast OVC046 44.1 26.4 50% 39 30 0.0
06 14:35 W 8 10.00 Overcast OVC046 44.1 27 51% 40 30 0.0
06 14:15 NW 10 10.00 Overcast OVC046 44.6 27.5 51% 40 30 0.0
06 13:55 W 9 10.00 Overcast BKN044 OVC050 44.6 26.6 49% 40 30 0.0
06 13:35 W 12 G 16 10.00 Overcast BKN044 OVC050 45 26.6 49% 40 29.99 0.0
06 13:15 NW 9 10.00 Overcast BKN044 OVC050 43.9 27.3 52% 39 30 0.0
06 12:55 W 9 10.00 Overcast OVC048 43.9 26.4 43.9 37 50% 39 30 0.0
06 12:35 W 10 10.00 Overcast OVC044 43.7 26.6 51% 39 30 0.0
06 12:15 NW 9 10.00 Overcast OVC044 43.7 26.2 50% 39 30 0.0
06 11:55 W 9 10.00 Overcast OVC044 43 25.7 51% 38 30 0.0
06 11:35 W 12 G 17 10.00 Overcast OVC044 43 26.2 52% 37 30 0.0
06 11:15 W 9 10.00 Overcast OVC044 43 27.1 54% 38 30 0.0
06 10:55 W 8 10.00 Overcast OVC042 42.1 27.5 56% 38 30 0.0
06 10:35 NW 10 10.00 Overcast OVC044 42.1 27.5 56% 37 30 0.0
06 10:15 W 8 10.00 Overcast SCT039 OVC046 41.9 27.3 56% 37 30 0.0
06 09:55 W 7 10.00 Overcast OVC046 41.9 27.5 57% 38 30 0.0
06 09:35 W 9 10.00 Overcast OVC046 41.9 27.5 57% 37 30 0.0
06 09:15 W 6 10.00 Overcast OVC046 41.2 29.5 63% 38 30 0.0
06 08:55 W 7 10.00 Overcast OVC046 40.6 29.3 64% 37 29.99 0.0
06 08:35 W 6 10.00 Overcast OVC044 39.6 28.8 65% 36 29.99 0.0
06 08:15 W 7 10.00 Overcast OVC044 39 28.2 65% 35 29.98 0.0
06 07:55 W 8 10.00 Overcast OVC044 38.3 28.2 67% 33 29.98 0.0
06 07:35 W 6 10.00 Overcast OVC044 37.4 27 66% 33 29.98 0.0
06 07:15 W 5 10.00 Overcast OVC044 37.4 28 69% 34 29.97 0.0
06 06:55 W 6 10.00 Overcast OVC044 37 27.3 38.8 33.1 68% 33 29.97 0.0
06 06:35 W 7 10.00 Overcast OVC044 36.5 27.3 69% 32 29.96 0.0
06 06:15 W 6 10.00 Overcast OVC044 35.6 27.3 72% 31 29.96 0.0
06 05:55 W 3 10.00 Overcast OVC044 34.5 25.9 71% 29.94 0.0
06 05:35 W 6 10.00 Mostly Cloudy BKN044 34 25.7 72% 29 29.93 0.0
06 05:15 W 6 10.00 Partly Cloudy SCT044 33.3 25.5 73% 29 29.94 0.0
06 04:55 W 7 10.00 Fair CLR 33.3 25.5 73% 28 29.94 0.0
06 04:35 W 6 10.00 Fair CLR 33.4 25.3 72% 29 29.94 0.0
06 04:15 W 5 10.00 Fair CLR 34 25.3 71% 30 29.94 0.0
06 03:55 W 6 10.00 Fair CLR 34.3 25.2 69% 30 29.93 0.0
06 03:35 W 5 10.00 Fair CLR 35.6 24.6 64% 32 29.93 0.0
06 03:15 W 5 10.00 Fair CLR 35.8 24.3 63% 32 29.93 0.0
06 02:55 NW 6 10.00 Fair CLR 36.5 23.9 60% 32 29.93 0.0
06 02:35 NW 7 10.00 Fair CLR 36.9 24.3 60% 32 29.92 0.0
06 02:15 NW 7 10.00 Fair CLR 37 25.2 62% 32 29.91 0.0
06 01:55 NW 8 10.00 Fair CLR 37.9 25.3 61% 33 29.91 0.0
06 01:40 NW 9 10.00 Fair CLR 38.5 26.1 61% 33 29.92 0.0
06 01:15 NW 7 10.00 Fair CLR 38.7 26.6 62% 34 29.92 0.0
06 00:55 NW 6 10.00 Fair CLR 38.7 27.1 49.3 38.7 63% 35 29.91 0.0
06 00:35 NW 6 10.00 Fair CLR 39.2 27.1 62% 36 29.91 0.0
06 00:15 NW 6 10.00 Fair CLR 39.2 27.5 63% 36 29.9 0.0
05 23:55 W 5 10.00 Fair CLR 40.1 26.8 59% 37 29.89 0.0
05 23:35 NW 7 10.00 Partly Cloudy SCT065 40.8 26.4 57% 37 29.89 0.0
05 23:15 NW 7 10.00 Partly Cloudy SCT065 41.9 26.2 54% 38 29.89 0.0
05 22:55 NW 8 10.00 Mostly Cloudy BKN065 43 26.2 52% 39 29.89 0.0
05 22:35 NW 10 10.00 Partly Cloudy SCT065 43.9 25.7 49% 39 29.89 0.0
05 22:15 NW 7 10.00 Partly Cloudy SCT065 43 26.1 51% 39 29.88 0.0
05 21:55 NW 7 10.00 Partly Cloudy SCT065 44.1 26.1 49% 41 29.88 0.0
05 21:35 NW 6 10.00 Mostly Cloudy BKN065 44.8 25.7 47% 42 29.87 0.0
05 21:15 NW 6 10.00 Partly Cloudy SCT065 44.6 25.9 48% 42 29.86 0.0
05 20:55 W 5 10.00 Fair CLR 45.5 25.2 45% 44 29.85 0.0
05 20:35 NW 5 10.00 Partly Cloudy SCT085 46.2 25.2 44% 45 29.85 0.0
05 20:15 NW 8 10.00 Overcast OVC085 47.8 24.8 41% 45 29.84 0.0
05 19:55 W 10 10.00 Overcast OVC085 48.4 23.9 38% 44 29.84 0.0
05 19:35 W 9 10.00 Overcast SCT065 OVC075 48.6 23.9 38% 45 29.83 0.0
05 19:15 W 9 10.00 Overcast SCT065 OVC075 49.1 24.6 38% 46 29.83 0.0
05 18:55 NW 7 10.00 Overcast OVC075 49.3 23.9 51.8 48 37% 47 29.83 0.0
05 18:35 W 13 G 18 10.00 Overcast OVC075 49.5 23.9 37% 45 29.83 0.0
05 18:15 W 10 G 21 10.00 Overcast SCT065 OVC075 49.8 23.2 35% 46 29.83 0.0
05 17:55 W 9 G 13 10.00 Overcast SCT065 OVC075 50.2 24.4 37% 29.83 0.0
05 17:35 NW 17 G 21 10.00 Overcast SCT065 OVC075 50.4 23.4 35% 29.83 0.0
05 17:15 NW 15 10.00 Overcast SCT065 OVC075 50.4 23.7 35% 29.83 0.0
05 16:55 W 17 G 21 10.00 Overcast SCT065 SCT075 OVC085 50.9 23.5 34% 29.83 0.0
05 16:35 W 14 G 23 10.00 Overcast SCT075 OVC085 50.9 23.5 34% 29.83 0.0
05 16:15 W 14 10.00 Overcast SCT065 OVC085 50.7 23.5 35% 29.83 0.0
05 15:55 W 12 G 21 10.00 Overcast SCT065 OVC075 50.9 23 34% 29.83 0.0
05 15:35 W 9 G 14 10.00 Overcast BKN065 OVC075 50.7 23.7 35% 29.83 0.0
05 15:15 W 10 G 22 10.00 Overcast BKN060 OVC075 50.7 23.4 34% 29.83 0.0
05 14:55 W 12 G 17 10.00 Overcast BKN060 OVC075 49.6 23.5 36% 46 29.84 0.0
05 14:35 NW 15 G 21 10.00 Overcast BKN060 OVC075 49.5 23.4 36% 44 29.84 0.0
05 14:15 W 16 G 22 10.00 Overcast BKN060 OVC075 50.2 24.3 36% 29.84 0.0
05 13:55 W 16 G 22 10.00 Overcast BKN060 OVC070 48.2 22.8 37% 43 29.84 0.0
05 13:35 NW 16 G 20 10.00 Overcast BKN060 OVC070 48.6 23 37% 43 29.84 0.0
05 13:15 W 14 G 24 10.00 Overcast SCT060 OVC070 48.4 23.2 37% 43 29.84 0.0
05 12:55 W 15 G 22 10.00 Overcast BKN060 OVC070 49.6 25.7 49.6 40.1 39% 45 29.84 0.0
05 12:35 W 15 G 21 10.00 Overcast SCT065 OVC070 47.3 22.6 38% 42 29.84 0.0
05 12:15 W 14 G 21 10.00 Overcast OVC065 47.3 21.6 36% 42 29.84 0.0
05 11:55 NW 16 G 21 10.00 Overcast OVC065 46.8 21 36% 41 29.84 0.0
05 11:35 NW 13 G 23 10.00 Overcast OVC065 47.3 20.8 35% 42 29.84 0.0
05 11:15 NW 17 G 22 10.00 Overcast OVC065 46.8 20.8 36% 40 29.83 0.0
05 10:55 NW 15 10.00 Mostly Cloudy BKN070 48.2 21.7 35% 43 29.83 0.0
05 10:35 W 9 G 17 10.00 Partly Cloudy SCT055 48.2 24.6 40% 45 29.83 0.0
05 10:15 NW 13 G 16 10.00 Partly Cloudy SCT050 SCT065 46.9 23.7 40% 42 29.82 0.0
05 09:55 NW 13 G 18 10.00 Fair CLR 46.6 22.8 39% 41 29.82 0.0
05 09:35 W 12 G 22 10.00 Fair CLR 45.9 23.2 41% 41 29.82 0.0
05 09:15 NW 14 G 21 10.00 Fair CLR 45 23.5 43% 39 29.82 0.0
05 08:55 NW 13 G 20 10.00 Fair CLR 43.9 24.3 46% 38 29.81 0.0
05 08:35 NW 13 G 18 10.00 Fair CLR 43.3 25.3 49% 37 29.81 0.0
05 08:15 NW 14 10.00 Fair CLR 42.4 25.3 51% 36 29.8 0.0
05 07:55 W 13 G 18 10.00 Fair CLR 41.9 26.2 54% 36 29.79 0.0
05 07:35 W 13 10.00 Fair CLR 41 27 57% 34 29.78 0.0
05 07:15 W 8 10.00 Fair CLR 40.6 27.7 60% 36 29.78 0.0
05 06:55 W 9 10.00 Fair CLR 40.1 29.1 44.1 38.3 65% 35 29.77 0.0
05 06:35 W 7 10.00 Fair CLR 39.2 29.5 68% 35 29.75 0.0
05 06:15 W 8 10.00 Fair CLR 38.5 29.3 70% 33 29.75 0.0
05 05:55 W 9 10.00 Fair CLR 39.2 29.1 67% 34 29.74 0.0
05 05:35 W 7 10.00 Fair CLR 38.8 29.1 68% 34 29.74 0.0
05 05:15 W 8 10.00 Fair CLR 39.6 29.3 67% 35 29.74 0.0
05 04:55 W 8 10.00 Fair CLR 40.1 29.3 65% 35 29.73 0.0
05 04:35 W 10 10.00 Fair CLR 40.6 29.3 64% 35 29.73 0.0
05 04:15 W 7 10.00 Fair CLR 41 28.9 62% 37 29.72 0.0
05 03:55 W 9 10.00 Fair CLR 41.4 28.9 61% 36 29.71 0.0
05 03:35 W 9 10.00 Fair CLR 41.9 28.4 59% 37 29.7 0.0
05 03:15 W 12 10.00 Fair CLR 41.9 28.6 59% 36 29.7 0.0
05 02:55 W 9 10.00 Fair CLR 42.3 28.4 58% 37 29.69 0.0
05 02:35 W 9 10.00 Fair CLR 42.8 28.8 58% 38 29.69 0.0
05 02:15 W 10 10.00 Fair CLR 42.8 28.2 56% 38 29.69 0.0
05 01:55 W 9 G 16 10.00 Fair CLR 43.3 28 55% 39 29.69 0.0
05 01:35 W 7 10.00 Fair CLR 43.5 28.4 55% 40 29.69 0.0
05 01:15 W 6 10.00 Fair CLR 43.3 29.1 57% 40 29.69 0.0
05 00:55 W 7 10.00 Fair CLR 43.9 28.2 55.4 43.9 54% 40 29.7 0.0
05 00:35 W 7 10.00 Fair CLR 44.1 28.4 54% 41 29.7 0.0
05 00:20 W 7 10.00 Fair CLR 44.1 28.4 54% 41 29.69 0.0
04 23:55 W 7 10.00 Fair CLR 44.8 27.9 52% 41 29.68 0.0
04 23:35 W 8 10.00 Fair CLR 44.8 28 52% 41 29.68 0.0
04 23:15 W 8 10.00 Fair CLR 45.7 27.5 49% 42 29.68 0.0
04 22:55 W 8 10.00 Fair CLR 46.2 27.5 48% 43 29.68 0.0
04 22:35 W 8 10.00 Fair CLR 46.6 27.9 48% 43 29.69 0.0
04 22:15 W 12 10.00 Partly Cloudy SCT070 47.5 27.9 47% 43 29.68 0.0
04 21:55 NW 12 G 20 10.00 Mostly Cloudy BKN070 48.6 27.1 43% 44 29.67 0.0
04 21:35 NW 16 G 23 10.00 Partly Cloudy SCT070 49.3 26.6 41% 44 29.66 0.0
04 21:15 NW 13 G 18 10.00 Partly Cloudy SCT070 49.8 26.1 40% 45 29.65 0.0
04 20:55 NW 15 G 25 10.00 Partly Cloudy SCT070 50.2 25.5 38% 29.64 0.0
04 20:35 NW 12 G 20 10.00 Fair CLR 50.9 25.5 37% 29.63 0.0
04 20:15 NW 18 G 23 10.00 Fair CLR 52 24.6 34% 29.62 0.0
04 19:55 NW 18 G 22 10.00 Fair CLR 53.1 25.9 35% 29.61 0.0
04 19:35 NW 15 G 22 10.00 Fair CLR 54 27.3 36% 29.6 0.0
04 19:15 NW 21 G 28 10.00 Fair and Breezy CLR 54.9 26.4 33% 29.59 0.0
04 18:55 W 16 G 25 10.00 Fair CLR 55.6 28.6 66.9 55.6 36% 29.58 0.0
04 18:35 NW 17 G 28 10.00 Fair CLR 56.3 28.9 35% 29.57 0.0
04 18:15 NW 21 G 30 10.00 Partly Cloudy and Breezy SCT065 57.7 29.7 34% 29.56 0.0
04 17:55 NW 21 G 29 10.00 Fair and Breezy CLR 58.3 30.4 35% 29.55 0.0
04 17:35 W 18 G 30 10.00 Partly Cloudy SCT065 59.2 30.7 34% 29.54 0.0
04 17:15 NW 18 G 29 10.00 Fair CLR 59.4 31.3 35% 29.52 0.0
04 16:55 NW 18 G 26 10.00 Fair CLR 62.4 32.2 32% 29.52 0.0
04 16:35 NW 23 G 29 10.00 Partly Cloudy and Breezy SCT065 62.4 31.3 31% 29.51 0.0
04 16:15 NW 18 G 31 10.00 Partly Cloudy SCT065 62.6 32.2 32% 29.51 0.0
04 15:55 NW 22 G 29 10.00 Partly Cloudy and Breezy SCT065 63.5 33.6 33% 29.5 0.0
04 15:35 W 20 G 30 10.00 Partly Cloudy SCT070 64.6 35.1 33% 29.49 0.0
04 15:15 NW 17 G 25 10.00 Partly Cloudy SCT070 64.9 34 32% 29.48 0.0
04 14:55 W 18 G 29 10.00 Mostly Cloudy BKN070 BKN100 65.8 32.7 29% 29.48 0.0
04 14:35 W 17 G 29 10.00 Mostly Cloudy SCT070 BKN110 66 34.3 31% 29.47 0.0
04 14:15 W 21 G 26 10.00 Partly Cloudy and Breezy SCT110 66.6 34.5 31% 29.47 0.0
04 13:55 W 18 G 25 10.00 Fair CLR 65.8 33.1 30% 29.47 0.0
04 13:35 NW 21 G 35 10.00 Fair and Breezy CLR 66.2 31.8 28% 29.46 0.0
04 13:15 W 24 G 36 10.00 Fair and Breezy CLR 66.4 29.8 25% 29.46 0.0
04 12:55 W 14 G 23 10.00 Fair CLR 66.6 33.3 66.9 58.5 29% 29.45 0.0
04 12:35 W 18 G 29 10.00 Fair CLR 66.2 31.8 28% 29.45 0.0
04 12:15 W 14 G 24 10.00 Fair CLR 66.2 32 28% 29.45 0.0
04 11:55 W 20 G 30 10.00 Fair CLR 64.8 30 27% 29.46 0.0
04 11:35 W 18 G 24 10.00 Fair CLR 65.8 33.3 30% 29.45 0.0
04 11:15 W 17 G 21 10.00 Fair CLR 65.3 33.8 31% 29.45 0.0
04 10:55 W 20 G 28 10.00 Fair CLR 64.2 31.5 29% 29.45 0.0
04 10:35 W 20 G 24 10.00 Fair CLR 64.4 36 35% 29.44 0.0
04 10:15 W 18 G 22 10.00 Fair CLR 64.8 38.3 38% 29.43 0.0
04 09:55 W 16 G 24 10.00 Fair CLR 64.4 38.8 39% 29.43 0.0
04 09:35 W 23 G 28 10.00 Fair and Breezy CLR 64.9 38.8 38% 29.42 0.0
04 09:15 W 17 G 23 10.00 Fair CLR 65.3 39 38% 29.42 0.0
04 08:55 W 21 G 28 10.00 Fair and Breezy CLR 64.6 38.7 39% 29.42 0.0
04 08:35 W 13 G 22 10.00 Partly Cloudy SCT110 63.9 37.8 38% 29.42 0.0
04 08:15 W 16 G 25 10.00 Mostly Cloudy BKN110 63.1 36.7 38% 29.41 0.0
04 07:55 SW 14 G 20 10.00 Fair CLR 62.4 36.5 38% 29.41 0.0
04 07:35 SW 18 G 24 10.00 Fair CLR 60.4 35.1 39% 29.4 0.0
Date Time (cdt) Wind (mph) Vis. (mi.) Weather Sky Cond. Air Dwpt Max. Min. Relative Humidity Wind Chill (°F) Heat Index (°F) altimeter (in) sea level (mb) 1 hr 3 hr 6 hr
6 hour
Temperature (ºF) Pressure Precipitation (in)